Time;durP1;ratioP1;P1;durP2;ratioP2;P2;SDS_P1;SDS_P2;PMS_P1;PMS_P2;Temp;Humidity;BMP_temperature;BMP_pressure;BME280_temperature;BME280_humidity;BME280_pressure;Samples;Min_cycle;Max_cycle;Signal;HPM_P1;HPM_P2
2021/07/24 00:00:06;;;;;;;7.03;2.42;;;;;;;20.58;52.55;100214.83;1736048;81;21027;-78
2021/07/24 00:02:34;;;;;;;3.83;3.42;;;;;;;20.57;52.58;100215.92;1754304;79;21042;-79
2021/07/24 00:05:00;;;;;;;3.72;3.10;;;;;;;20.55;52.70;100213.97;1751298;81;21076;-77
2021/07/24 00:07:26;;;;;;;;;;;;;;;20.53;52.77;100218.83;1747099;81;21111;-77
2021/07/24 00:09:52;;;;;;;3.50;3.30;;;;;;;20.51;52.47;100220.47;1749001;81;20212;-80
2021/07/24 00:12:19;;;;;;;2.95;2.75;;;;;;;20.43;52.54;100219.56;1743340;81;21470;-79
2021/07/24 00:14:47;;;;;;;4.60;3.40;;;;;;;20.41;52.63;100217.11;1731716;81;21136;-79
2021/07/24 00:17:14;;;;;;;3.80;3.40;;;;;;;20.41;52.37;100222.52;1740825;81;21345;-79
2021/07/24 00:19:42;;;;;;;3.58;3.27;;;;;;;20.38;52.52;100227.11;1744086;81;21050;-79
2021/07/24 00:22:08;;;;;;;;;;;;;;;20.35;52.68;100227.61;1740045;81;21052;-78
2021/07/24 00:24:34;;;;;;;3.22;3.02;;;;;;;20.32;52.85;100224.05;1750013;81;20158;-79
2021/07/24 00:27:01;;;;;;;3.58;3.35;;;;;;;20.23;52.75;100224.27;1724038;82;21630;-78
2021/07/24 00:29:27;;;;;;;3.52;3.22;;;;;;;20.20;52.94;100223.41;1708873;83;21487;-77
2021/07/24 00:31:53;;;;;;;;;;;;;;;20.19;53.05;100223.11;1731611;82;21104;-79
2021/07/24 00:34:19;;;;;;;3.22;3.02;;;;;;;20.16;53.12;100229.05;1751553;81;20152;-78
2021/07/24 00:36:46;;;;;;;3.37;3.15;;;;;;;20.07;53.54;100223.81;1747501;81;21624;-78
2021/07/24 00:39:13;;;;;;;2.87;2.67;;;;;;;20.06;53.30;100226.22;1750718;81;21058;-77
2021/07/24 00:41:47;;;;;;;3.70;3.40;;;;;;;20.03;53.38;100224.30;1755556;81;20990;-77
2021/07/24 00:44:16;;;;;;;3.72;3.42;;;;;;;20.04;53.51;100227.82;1752462;80;21085;-78
2021/07/24 00:46:44;;;;;;;5.08;3.20;;;;;;;20.00;53.64;100229.41;1744649;82;21061;-76
2021/07/24 00:49:12;;;;;;;4.10;3.55;;;;;;;20.00;53.50;100228.05;1741676;81;21205;-78
2021/07/24 00:51:47;;;;;;;4.33;3.83;;;;;;;19.99;53.57;100231.30;1753614;81;21577;-78
2021/07/24 00:54:14;;;;;;;4.28;3.98;;;;;;;19.80;53.76;100201.06;1745378;81;21009;-78
2021/07/24 00:56:43;;;;;;;3.37;3.17;;;;;;;19.96;53.99;100229.63;1738418;80;21092;-78
2021/07/24 00:59:10;;;;;;;3.50;3.08;;;;;;;19.94;54.08;100226.37;1739227;80;21604;-80
2021/07/24 01:01:41;;;;;;;3.27;3.00;;;;;;;19.93;54.25;100222.02;1750151;80;21546;-78
2021/07/24 01:04:05;;;;;;;5.28;3.87;;;;;;;19.91;54.05;100227.70;1725071;81;21033;-78
2021/07/24 01:06:32;;;;;;;;;;;;;;;19.90;53.91;100226.59;1762417;80;21103;-77
2021/07/24 01:08:59;;;;;;;4.17;3.87;;;;;;;19.89;53.86;100228.49;1742940;80;20153;-78
2021/07/24 01:11:27;;;;;;;4.25;3.67;;;;;;;19.83;54.02;100229.48;1697211;82;21091;-79
2021/07/24 01:13:53;;;;;;;4.53;4.17;;;;;;;19.81;53.99;100224.86;1686181;83;21105;-77
2021/07/24 01:16:21;;;;;;;4.72;4.42;;;;;;;19.81;54.03;100228.38;1696396;83;21484;-77
2021/07/24 01:18:47;;;;;;;4.62;3.40;;;;;;;19.81;54.14;100232.97;1698308;83;21536;-77
2021/07/24 01:21:27;;;;;;;4.25;3.65;;;;;;;19.77;54.16;100226.44;1702154;83;21092;-79
2021/07/24 01:23:55;;;;;;;4.17;3.22;;;;;;;19.76;53.99;100226.14;1695352;83;21481;-78
2021/07/24 01:26:31;;;;;;;4.47;4.08;;;;;;;19.76;53.96;100224.28;1704941;83;21057;-77
2021/07/24 01:28:58;;;;;;;;;;;;;;;19.77;53.92;100223.73;1706612;83;21485;-77
2021/07/24 01:31:25;;;;;;;;;;;;;;;19.77;54.09;100227.79;1687585;83;20201;-85
2021/07/24 01:33:52;;;;;;;6.00;4.72;;;;;;;19.71;54.01;100224.72;1704316;83;20501;-77
2021/07/24 01:36:18;;;;;;;;;;;;;;;19.63;54.22;100225.44;1724017;82;21013;-79
2021/07/24 01:38:45;;;;;;;3.67;3.22;;;;;;;19.63;54.17;100224.09;1724174;82;20190;-79
2021/07/24 01:41:15;;;;;;;4.03;3.65;;;;;;;19.61;54.17;100230.28;1729912;82;21049;-78
2021/07/24 01:43:43;;;;;;;4.08;3.72;;;;;;;19.62;54.02;100226.48;1713680;82;21074;-80
2021/07/24 01:46:09;;;;;;;3.92;3.62;;;;;;;19.65;54.25;100226.54;1731784;81;21009;-78
2021/07/24 01:48:45;;;;;;;4.85;3.55;;;;;;;19.66;54.18;100226.81;1720336;82;21090;-78
2021/07/24 01:53:58;;;;;;;4.08;3.22;;;;;;;19.67;53.99;100225.75;1708267;82;21484;-78
2021/07/24 01:56:31;;;;;;;4.45;3.92;;;;;;;19.63;54.11;100230.84;1729244;82;21082;-77
2021/07/24 01:58:58;;;;;;;3.83;3.52;;;;;;;19.61;54.09;100231.63;1711008;82;21002;-78
2021/07/24 02:01:28;;;;;;;4.55;4.12;;;;;;;19.61;54.19;100224.88;1746567;81;21539;-78
2021/07/24 02:04:03;;;;;;;4.67;4.35;;;;;;;19.59;54.04;100227.02;1726217;82;21005;-78
2021/07/24 02:06:37;;;;;;;4.22;3.77;;;;;;;19.60;54.00;100228.62;1740683;81;21138;-79
2021/07/24 02:09:22;;;;;;;4.22;3.90;;;;;;;19.57;54.34;100236.42;1746334;81;21068;-78
2021/07/24 02:11:52;;;;;;;4.28;3.87;;;;;;;19.54;54.37;100232.34;1746920;81;21069;-79
2021/07/24 02:14:20;;;;;;;5.28;4.72;;;;;;;19.52;54.59;100229.08;1742441;80;21152;-79
2021/07/24 02:16:48;;;;;;;4.17;3.67;;;;;;;19.51;54.76;100235.53;1747664;81;21040;-76
2021/07/24 02:19:17;;;;;;;4.35;4.05;;;;;;;19.48;55.05;100225.75;1746296;80;21021;-78
2021/07/24 02:21:44;;;;;;;4.70;4.33;;;;;;;19.46;55.24;100230.08;1744574;80;21046;-79
2021/07/24 02:24:10;;;;;;;4.70;4.30;;;;;;;19.43;55.31;100228.67;1721742;81;21093;-77
2021/07/24 02:26:44;;;;;;;4.40;4.15;;;;;;;19.41;55.40;100232.17;1761294;79;21039;-78
2021/07/24 02:29:11;;;;;;;4.85;4.37;;;;;;;19.41;55.26;100231.36;1753154;79;21065;-77
2021/07/24 02:31:37;;;;;;;6.55;4.40;;;;;;;19.38;55.68;100227.79;1764251;79;21074;-77
2021/07/24 02:34:04;;;;;;;4.40;4.00;;;;;;;19.33;55.94;100227.20;1756359;80;20959;-78
2021/07/24 02:36:33;;;;;;;6.17;4.55;;;;;;;19.31;55.88;100237.95;1704480;82;21124;-77
2021/07/24 02:39:00;;;;;;;5.22;4.72;;;;;;;19.29;55.93;100236.03;1747974;82;21006;-77
2021/07/24 02:41:26;;;;;;;7.05;4.80;;;;;;;19.28;56.46;100237.12;1721810;82;21067;-77
2021/07/24 02:43:53;;;;;;;5.62;4.00;;;;;;;19.23;56.79;100231.09;1736917;82;21190;-79
2021/07/24 02:46:21;;;;;;;4.92;4.45;;;;;;;19.20;56.83;100237.02;1742015;81;21063;-78
2021/07/24 02:48:51;;;;;;;4.87;4.47;;;;;;;19.17;56.81;100239.66;1713868;82;21576;-78
2021/07/24 02:51:18;;;;;;;7.12;4.22;;;;;;;19.16;56.78;100240.73;1703900;82;21623;-78
2021/07/24 02:53:47;;;;;;;6.30;4.85;;;;;;;19.16;56.96;100236.69;1716671;83;21084;-79
2021/07/24 02:56:13;;;;;;;;;;;;;;;19.17;56.77;100243.70;1735280;81;21471;-77
2021/07/24 02:58:40;;;;;;;4.65;4.25;;;;;;;19.21;56.67;100242.17;1721435;80;20096;-77
2021/07/24 03:01:08;;;;;;;7.35;4.25;;;;;;;18.70;56.83;100158.16;1742435;81;21086;-79
2021/07/24 03:03:35;;;;;;;4.80;4.40;;;;;;;19.33;56.90;100246.66;1731322;81;21027;-79
2021/07/24 03:06:03;;;;;;;7.30;4.72;;;;;;;19.53;57.01;100239.34;1744738;81;21068;-78
2021/07/24 03:08:29;;;;;;;4.95;4.55;;;;;;;19.84;55.59;100246.00;1740127;80;21031;-76
2021/07/24 03:10:57;;;;;;;6.25;5.67;;;;;;;20.15;54.97;100239.58;1775776;80;20997;-77
2021/07/24 03:13:23;;;;;;;;;;;;;;;20.48;54.33;100242.62;1773262;81;21022;-77
2021/07/24 03:15:49;;;;;;;5.33;4.53;;;;;;;20.82;53.80;100238.90;1765832;80;20470;-77
2021/07/24 03:18:17;;;;;;;5.72;5.22;;;;;;;21.11;53.00;100244.78;1766538;81;21546;-77
2021/07/24 03:20:45;;;;;;;8.68;5.33;;;;;;;21.38;52.60;100252.29;1777099;80;21032;-77
2021/07/24 03:23:10;;;;;;;;;;;;;;;21.67;51.83;100244.33;1748868;80;21567;-77
2021/07/24 03:25:41;;;;;;;5.67;5.28;;;;;;;21.94;51.16;100249.58;1710273;82;20149;-77
2021/07/24 03:28:09;;;;;;;6.20;5.62;;;;;;;22.13;50.65;100250.75;1741747;81;21605;-78
2021/07/24 03:30:38;;;;;;;7.33;5.50;;;;;;;22.35;49.97;100247.02;1749807;81;21127;-77
2021/07/24 03:33:04;;;;;;;6.17;5.17;;;;;;;22.59;49.46;100251.39;1737809;81;21040;-77
2021/07/24 03:35:31;;;;;;;6.62;5.92;;;;;;;22.84;48.94;100256.02;1778362;79;21006;-79
2021/07/24 03:38:06;;;;;;;5.92;5.47;;;;;;;23.05;48.66;100250.59;1770245;79;21059;-77
2021/07/24 03:40:33;;;;;;;7.08;6.12;;;;;;;23.29;47.60;100254.92;1759216;79;21117;-79
2021/07/24 03:43:02;;;;;;;6.00;5.40;;;;;;;23.49;47.75;100254.06;1751518;79;21089;-78
2021/07/24 03:45:27;;;;;;;5.97;5.10;;;;;;;23.67;46.79;100249.91;1756208;79;21042;-78
2021/07/24 03:47:53;;;;;;;7.08;5.50;;;;;;;23.80;46.50;100252.06;1769885;79;21051;-79
2021/07/24 03:50:19;;;;;;;7.28;5.62;;;;;;;23.94;46.01;100255.54;1776385;79;20977;-79
2021/07/24 03:52:45;;;;;;;6.67;5.10;;;;;;;24.04;45.70;100262.31;1760351;79;21026;-78
2021/07/24 03:55:11;;;;;;;5.47;4.95;;;;;;;24.18;45.54;100263.86;1770987;79;20995;-79
2021/07/24 03:57:38;;;;;;;6.42;5.10;;;;;;;24.37;45.17;100261.30;1736404;81;21046;-78
2021/07/24 04:00:06;;;;;;;8.73;5.20;;;;;;;24.53;44.37;100257.97;1731834;80;21053;-77
2021/07/24 04:02:38;;;;;;;6.70;5.67;;;;;;;24.63;44.10;100260.60;1724509;82;21105;-80
2021/07/24 04:05:03;;;;;;;7.10;5.65;;;;;;;24.77;44.33;100253.94;1715672;82;21119;-78
2021/07/24 04:07:30;;;;;;;7.58;6.40;;;;;;;24.95;43.46;100259.26;1734550;81;21437;-80
2021/07/24 04:09:57;;;;;;;8.78;7.05;;;;;;;25.02;43.47;100263.83;1753641;80;21053;-82
2021/07/24 04:12:24;;;;;;;7.62;6.30;;;;;;;25.05;43.41;100261.34;1744113;81;21177;-83
2021/07/24 04:14:50;;;;;;;7.92;6.05;;;;;;;25.09;43.64;100262.95;1734135;81;21064;-80
2021/07/24 04:17:16;;;;;;;7.78;5.78;;;;;;;25.11;43.46;100262.64;1727800;82;21627;-82
2021/07/24 04:19:43;;;;;;;9.15;5.28;;;;;;;25.02;43.62;100261.11;1720469;82;21026;-81
2021/07/24 04:22:10;;;;;;;11.03;6.35;;;;;;;25.01;43.48;100258.91;1745505;81;21017;-81
2021/07/24 04:24:36;;;;;;;7.17;6.10;;;;;;;25.10;43.43;100261.03;1711398;81;20971;-82
2021/07/24 04:27:03;;;;;;;9.73;5.47;;;;;;;25.20;43.17;100261.75;1718776;82;21486;-80
2021/07/24 04:29:29;;;;;;;10.03;4.90;;;;;;;25.35;42.82;100258.06;1716478;82;21082;-83
2021/07/24 04:31:55;;;;;;;5.45;4.92;;;;;;;25.49;43.07;100254.67;1721538;81;21065;-81
2021/07/24 04:34:21;;;;;;;6.37;5.28;;;;;;;25.52;42.32;100256.80;1733312;81;21148;-79
2021/07/24 04:36:47;;;;;;;4.78;4.40;;;;;;;25.59;42.42;100261.36;1745666;80;21167;-78
2021/07/24 04:39:14;;;;;;;6.85;4.60;;;;;;;25.63;42.20;100262.41;1718106;82;21096;-80
2021/07/24 04:41:44;;;;;;;8.25;4.33;;;;;;;25.71;42.65;100264.51;1714281;82;21571;-81
2021/07/24 04:44:10;;;;;;;5.80;4.15;;;;;;;25.81;41.55;100258.91;1745239;81;21060;-81
2021/07/24 04:46:36;;;;;;;5.42;4.42;;;;;;;25.84;41.91;100262.44;1745467;80;21072;-82
2021/07/24 04:49:02;;;;;;;4.55;3.95;;;;;;;26.01;40.99;100258.41;1747742;80;21091;-82
2021/07/24 04:51:30;;;;;;;5.78;4.33;;;;;;;26.15;40.29;100263.41;1751818;81;21023;-84
2021/07/24 04:53:57;;;;;;;5.40;4.92;;;;;;;26.30;39.99;100262.95;1747029;80;21521;-83
2021/07/24 04:56:25;;;;;;;6.55;4.35;;;;;;;26.38;39.94;100264.44;1741988;81;21077;-82
2021/07/24 04:58:52;;;;;;;13.95;4.35;;;;;;;26.33;39.69;100260.97;1695182;83;21109;-82
2021/07/24 05:01:19;;;;;;;5.45;4.15;;;;;;;26.33;40.33;100260.41;1712956;83;21096;-81
2021/07/24 05:03:46;;;;;;;5.33;4.92;;;;;;;26.41;39.79;100262.49;1705477;82;21094;-81
2021/07/24 05:06:14;;;;;;;9.28;4.15;;;;;;;26.35;40.06;100262.85;1702584;83;21045;-83
2021/07/24 05:08:41;;;;;;;4.90;4.50;;;;;;;26.34;40.07;100262.05;1711963;82;21559;-83
2021/07/24 05:11:07;;;;;;;9.28;4.10;;;;;;;26.25;39.96;100235.13;1712697;82;21129;-81
2021/07/24 05:13:34;;;;;;;4.15;3.95;;;;;;;26.56;39.81;100261.45;1722307;82;21069;-84
2021/07/24 05:16:01;;;;;;;5.10;4.50;;;;;;;26.65;39.39;100259.43;1720567;83;20974;-82
2021/07/24 05:18:27;;;;;;;6.17;3.90;;;;;;;26.57;40.04;100264.42;1713383;82;21698;-78
2021/07/24 05:20:54;;;;;;;4.72;4.33;;;;;;;26.59;40.32;100254.03;1708745;82;21069;-80
2021/07/24 05:23:20;;;;;;;4.20;3.85;;;;;;;26.64;39.69;100253.16;1705041;82;21096;-81
2021/07/24 05:25:46;;;;;;;4.72;4.35;;;;;;;26.53;39.38;100263.40;1714863;82;21124;-81
2021/07/24 05:28:13;;;;;;;4.62;4.10;;;;;;;26.37;39.83;100264.73;1711446;82;21096;-82
2021/07/24 05:30:39;;;;;;;12.47;5.25;;;;;;;26.32;40.02;100261.53;1715093;82;21549;-81
2021/07/24 05:33:05;;;;;;;8.10;4.30;;;;;;;26.22;40.35;100256.23;1710762;82;21135;-82
2021/07/24 05:35:31;;;;;;;7.97;4.33;;;;;;;26.20;40.47;100260.62;1679758;85;21273;-81
2021/07/24 05:37:57;;;;;;;6.62;4.03;;;;;;;26.22;40.38;100252.94;1682256;85;21059;-82
2021/07/24 05:40:23;;;;;;;5.05;4.58;;;;;;;26.19;40.79;100263.08;1681550;85;21698;-82
2021/07/24 05:42:50;;;;;;;4.22;3.35;;;;;;;26.33;40.86;100258.23;1682903;84;21047;-81
2021/07/24 05:45:18;;;;;;;4.55;4.15;;;;;;;26.55;39.84;100257.64;1668987;85;21114;-81
2021/07/24 05:47:46;;;;;;;4.37;3.98;;;;;;;26.60;39.38;100250.20;1681738;83;21448;-89
2021/07/24 05:50:21;;;;;;;6.40;4.22;;;;;;;26.55;39.38;100261.18;1683459;83;21150;-89
2021/07/24 05:52:45;;;;;;;6.15;3.65;;;;;;;26.49;39.68;100262.38;1682143;83;21031;-85
2021/07/24 05:55:11;;;;;;;3.98;3.45;;;;;;;26.58;40.08;100259.80;1647762;85;21076;-81
2021/07/24 05:57:38;;;;;;;6.28;4.37;;;;;;;26.73;39.80;100258.73;1673084;84;21616;-82
2021/07/24 06:00:06;;;;;;;4.83;3.67;;;;;;;26.92;38.16;100251.89;1666307;84;21024;-79
2021/07/24 06:02:35;;;;;;;4.40;3.92;;;;;;;26.88;37.91;100258.52;1657694;85;21084;-83
2021/07/24 06:05:04;;;;;;;4.30;3.52;;;;;;;26.62;38.81;100269.05;1692526;83;21640;-81
2021/07/24 06:07:31;;;;;;;4.90;4.55;;;;;;;26.40;39.02;100266.32;1670274;84;21644;-80
2021/07/24 06:09:58;;;;;;;4.00;3.70;;;;;;;26.35;40.02;100265.59;1724834;81;20986;-83
2021/07/24 06:12:25;;;;;;;3.87;3.55;;;;;;;26.51;39.76;100266.98;1738070;81;21048;-81
2021/07/24 06:14:51;;;;;;;4.42;4.12;;;;;;;26.71;39.71;100259.06;1756217;80;21039;-82
2021/07/24 06:17:17;;;;;;;6.65;4.58;;;;;;;26.89;38.44;100260.68;1749200;80;20962;-82
2021/07/24 06:19:44;;;;;;;4.78;4.20;;;;;;;26.89;38.40;100265.59;1754782;80;21013;-79
2021/07/24 06:22:10;;;;;;;4.45;4.05;;;;;;;26.70;39.22;100269.73;1747711;80;21052;-80
2021/07/24 06:24:36;;;;;;;5.28;4.45;;;;;;;26.63;39.36;100265.75;1727175;83;21003;-81
2021/07/24 06:27:04;;;;;;;6.10;3.77;;;;;;;26.64;39.12;100265.46;1717474;83;21012;-82
2021/07/24 06:29:30;;;;;;;4.37;3.98;;;;;;;26.67;39.06;100265.41;1728681;82;20983;-81
2021/07/24 06:31:56;;;;;;;5.97;3.85;;;;;;;26.77;39.33;100265.26;1722830;82;21053;-81
2021/07/24 06:34:22;;;;;;;6.53;4.12;;;;;;;26.86;39.82;100259.91;1711209;81;21605;-81
2021/07/24 06:36:48;;;;;;;4.47;4.17;;;;;;;26.86;39.82;100259.91;1678368;84;21141;-81
2021/07/24 06:39:14;;;;;;;6.10;3.40;;;;;;;26.95;38.91;100260.28;1694549;83;21102;-81
2021/07/24 06:41:42;;;;;;;4.05;3.85;;;;;;;26.97;38.68;100259.98;1679452;84;21582;-79
2021/07/24 06:44:11;;;;;;;4.10;3.85;;;;;;;27.00;39.05;100267.59;1687878;83;21583;-85
2021/07/24 06:46:37;;;;;;;4.83;3.45;;;;;;;27.17;38.44;100264.30;1695356;83;21057;-82
2021/07/24 06:49:05;;;;;;;4.95;3.62;;;;;;;27.26;38.10;100261.71;1719525;82;21015;-81
2021/07/24 06:51:32;;;;;;;5.08;3.80;;;;;;;27.42;38.36;100265.76;1711937;82;21545;-82
2021/07/24 06:53:58;;;;;;;4.30;4.00;;;;;;;27.56;37.78;100259.74;1712250;82;21065;-83
2021/07/24 06:56:24;;;;;;;7.80;4.40;;;;;;;27.45;37.79;100227.41;1742695;81;21562;-81
2021/07/24 06:58:51;;;;;;;4.22;3.92;;;;;;;27.51;38.50;100259.84;1756598;80;21057;-84
2021/07/24 07:01:18;;;;;;;3.92;3.65;;;;;;;27.59;37.45;100262.42;1763604;80;21109;-83
2021/07/24 07:03:44;;;;;;;3.50;3.00;;;;;;;27.54;37.25;100256.50;1751617;80;21486;-82
2021/07/24 07:06:13;;;;;;;5.03;3.35;;;;;;;27.57;37.25;100258.61;1737799;80;21151;-82
2021/07/24 07:08:39;;;;;;;3.55;3.35;;;;;;;27.60;37.40;100264.05;1757728;80;21690;-83
2021/07/24 07:11:05;;;;;;;4.65;3.20;;;;;;;27.78;37.51;100266.41;1758988;80;21147;-83
2021/07/24 07:13:34;;;;;;;3.77;3.58;;;;;;;27.86;37.05;100262.98;1722492;82;21047;-81
2021/07/24 07:16:09;;;;;;;4.03;3.77;;;;;;;27.80;36.24;100264.75;1726306;82;21047;-82
2021/07/24 07:18:37;;;;;;;4.87;4.00;;;;;;;27.75;37.22;100267.84;1726051;82;21597;-81
2021/07/24 07:21:06;;;;;;;5.87;3.92;;;;;;;27.80;36.58;100266.11;1724029;82;21617;-81
2021/07/24 07:23:32;;;;;;;5.15;3.52;;;;;;;27.76;36.59;100257.70;1720229;81;21659;-82
2021/07/24 07:26:01;;;;;;;4.05;3.27;;;;;;;27.77;36.84;100268.35;1720580;81;21071;-81
2021/07/24 07:28:29;;;;;;;3.55;3.27;;;;;;;27.69;36.78;100269.61;1719187;81;21039;-79
2021/07/24 07:30:59;;;;;;;4.22;3.80;;;;;;;27.73;36.34;100267.91;1726853;82;21116;-81
2021/07/24 07:33:26;;;;;;;4.05;3.65;;;;;;;27.75;36.05;100262.94;1712962;82;21038;-81
2021/07/24 07:35:52;;;;;;;3.50;3.33;;;;;;;27.57;36.23;100266.02;1730771;82;21725;-81
2021/07/24 07:38:18;;;;;;;3.50;3.30;;;;;;;27.44;36.68;100266.83;1729457;82;21010;-80
2021/07/24 07:40:44;;;;;;;4.22;3.83;;;;;;;27.25;37.06;100261.41;1728428;81;22228;-81
2021/07/24 07:43:10;;;;;;;5.95;3.47;;;;;;;27.14;37.41;100259.41;1722549;81;21086;-81
2021/07/24 07:45:37;;;;;;;3.65;3.33;;;;;;;27.11;36.92;100261.41;1721172;81;20987;-81
2021/07/24 07:48:05;;;;;;;4.22;3.85;;;;;;;27.10;37.33;100267.97;1731820;81;21091;-81
2021/07/24 07:50:31;;;;;;;3.72;3.47;;;;;;;27.06;36.83;100264.22;1731537;81;21019;-80
2021/07/24 07:52:58;;;;;;;3.65;3.45;;;;;;;26.95;37.55;100271.78;1712266;82;21039;-78
2021/07/24 07:55:24;;;;;;;5.47;3.72;;;;;;;26.79;38.26;100278.08;1718881;81;21598;-79
2021/07/24 07:57:50;;;;;;;3.62;3.30;;;;;;;26.73;38.47;100266.94;1717407;81;21035;-79
2021/07/24 08:00:17;;;;;;;4.50;4.17;;;;;;;26.73;38.06;100269.67;1715505;81;21051;-79
2021/07/24 08:02:43;;;;;;;4.33;3.15;;;;;;;26.66;38.57;100263.23;1726203;81;21047;-80
2021/07/24 08:05:10;;;;;;;4.47;3.62;;;;;;;26.63;38.75;100264.38;1743712;80;21622;-79
2021/07/24 08:07:36;;;;;;;5.40;4.78;;;;;;;26.58;38.70;100277.00;1761197;80;21521;-80
2021/07/24 08:10:04;;;;;;;4.37;4.15;;;;;;;26.50;39.35;100270.81;1760678;80;21155;-79
2021/07/24 08:12:30;;;;;;;4.12;3.67;;;;;;;26.47;38.92;100271.99;1763669;80;20985;-78
2021/07/24 08:14:56;;;;;;;5.55;3.87;;;;;;;26.39;38.56;100276.17;1750069;80;21003;-78
2021/07/24 08:17:22;;;;;;;4.85;4.33;;;;;;;26.29;38.58;100273.05;1771011;80;21131;-79
2021/07/24 08:19:50;;;;;;;5.00;4.58;;;;;;;26.19;38.75;100276.73;1761537;80;21044;-79
2021/07/24 08:22:16;;;;;;;6.50;3.77;;;;;;;26.12;39.55;100272.75;1757111;80;21103;-79
2021/07/24 08:24:42;;;;;;;4.05;3.80;;;;;;;26.15;38.47;100277.63;1732403;81;21529;-79
2021/07/24 08:27:08;;;;;;;5.33;3.40;;;;;;;26.25;38.16;100273.38;1732881;81;20994;-78
2021/07/24 08:29:35;;;;;;;4.42;3.52;;;;;;;26.28;38.04;100272.80;1722886;83;21107;-82
2021/07/24 08:32:03;;;;;;;5.08;3.62;;;;;;;26.33;37.94;100274.63;1722296;83;21099;-79
2021/07/24 08:34:29;;;;;;;4.50;4.10;;;;;;;26.32;37.76;100275.20;1712779;83;21104;-81
2021/07/24 08:36:57;;;;;;;3.80;3.37;;;;;;;26.34;38.07;100265.34;1740458;81;21141;-79
2021/07/24 08:39:23;;;;;;;4.30;3.90;;;;;;;26.48;37.65;100274.97;1751300;81;21002;-78
2021/07/24 08:41:50;;;;;;;3.83;3.15;;;;;;;26.54;37.37;100277.34;1748765;81;21096;-79
2021/07/24 08:44:16;;;;;;;4.10;3.65;;;;;;;26.56;37.27;100275.12;1745267;81;21026;-78
2021/07/24 08:46:43;;;;;;;3.83;3.22;;;;;;;26.53;37.81;100272.97;1753137;81;21606;-81
2021/07/24 08:49:10;;;;;;;4.72;3.55;;;;;;;26.52;37.62;100268.63;1758873;81;21490;-79
2021/07/24 08:51:37;;;;;;;3.83;3.50;;;;;;;26.56;37.88;100279.22;1742152;81;21410;-79
2021/07/24 08:54:05;;;;;;;4.10;3.80;;;;;;;26.61;37.56;100276.41;1750263;81;21459;-82
2021/07/24 08:56:35;;;;;;;6.80;4.12;;;;;;;26.63;37.55;100275.31;1753448;81;21628;-80
2021/07/24 08:59:03;;;;;;;6.15;3.95;;;;;;;26.66;36.74;100273.37;1760062;81;21005;-80
2021/07/24 09:01:34;;;;;;;4.62;3.62;;;;;;;26.61;37.57;100275.05;1765247;81;21252;-81
2021/07/24 09:04:04;;;;;;;3.58;3.27;;;;;;;26.60;37.31;100271.27;1764241;80;21169;-81
2021/07/24 09:06:31;;;;;;;5.42;3.65;;;;;;;26.63;36.46;100272.59;1759702;81;22175;-80
2021/07/24 09:08:59;;;;;;;7.35;4.15;;;;;;;26.63;36.51;100273.39;1783991;79;21054;-78
2021/07/24 09:11:25;;;;;;;4.17;3.87;;;;;;;26.57;36.92;100279.45;1778072;79;21748;-79
2021/07/24 09:13:51;;;;;;;7.47;3.77;;;;;;;26.53;37.23;100274.33;1768832;80;21029;-78
2021/07/24 09:16:19;;;;;;;6.28;4.03;;;;;;;26.50;37.08;100270.02;1776686;80;21479;-81
2021/07/24 09:18:48;;;;;;;4.50;4.15;;;;;;;26.47;36.73;100271.42;1772384;79;21054;-79
2021/07/24 09:21:16;;;;;;;4.40;4.00;;;;;;;26.50;36.55;100268.08;1771585;79;20994;-77
2021/07/24 09:23:50;;;;;;;3.27;3.17;;;;;;;26.54;36.35;100268.30;1763063;80;20969;-81
2021/07/24 09:26:34;;;;;;;4.20;3.35;;;;;;;26.50;36.09;100266.72;1777135;79;21242;-80
2021/07/24 09:29:16;;;;;;;11.63;4.85;;;;;;;26.35;36.62;100266.42;1779397;79;21050;-81
2021/07/24 09:31:44;;;;;;;4.40;4.12;;;;;;;26.30;37.35;100272.52;1751478;80;21096;-80
2021/07/24 09:34:13;;;;;;;5.40;4.90;;;;;;;26.27;37.92;100267.63;1775152;80;21021;-79
2021/07/24 09:36:42;;;;;;;4.75;4.25;;;;;;;26.21;38.43;100274.52;1775168;79;21027;-79
2021/07/24 09:39:15;;;;;;;4.42;3.98;;;;;;;26.19;38.53;100267.17;1776557;80;21039;-79
2021/07/24 09:41:45;;;;;;;3.83;3.62;;;;;;;26.14;39.52;100271.34;1764041;79;21123;-79
2021/07/24 09:44:30;;;;;;;4.00;3.77;;;;;;;26.11;39.56;100271.14;1762750;80;21141;-79
2021/07/24 09:46:57;;;;;;;4.53;3.92;;;;;;;26.08;38.65;100271.72;1745677;80;21064;-80
2021/07/24 09:49:38;;;;;;;4.92;4.47;;;;;;;25.91;38.06;100268.08;1776558;80;21101;-78
2021/07/24 09:52:14;;;;;;;5.90;4.17;;;;;;;25.83;38.35;100266.81;1771138;79;21082;-77
2021/07/24 09:54:45;;;;;;;4.92;4.15;;;;;;;25.82;38.78;100268.73;1768088;80;21116;-80
2021/07/24 09:57:33;;;;;;;7.37;4.17;;;;;;;25.82;38.93;100266.01;1773867;80;21074;-79
2021/07/24 10:00:26;;;;;;;6.45;3.80;;;;;;;25.91;38.85;100261.25;1783027;79;21535;-77
2021/07/24 10:03:00;;;;;;;3.75;3.45;;;;;;;26.06;38.34;100263.00;1780508;79;21023;-80
2021/07/24 10:05:42;;;;;;;6.90;4.08;;;;;;;26.19;38.06;100264.44;1752051;80;21181;-79
2021/07/24 10:08:18;;;;;;;5.35;3.60;;;;;;;26.35;38.18;100259.59;1724761;82;21586;-79
2021/07/24 10:10:51;;;;;;;4.28;3.52;;;;;;;26.56;37.59;100265.55;1720945;82;21648;-80
2021/07/24 10:13:16;;;;;;;4.17;3.72;;;;;;;26.72;36.46;100263.97;1704617;82;21088;-79
2021/07/24 10:15:46;;;;;;;4.35;3.87;;;;;;;26.79;36.18;100253.47;1733204;82;21076;-80
2021/07/24 10:18:15;;;;;;;4.60;3.90;;;;;;;26.89;36.19;100253.28;1724602;82;21072;-78
2021/07/24 10:20:47;;;;;;;5.75;4.55;;;;;;;26.94;35.64;100257.30;1737148;82;21024;-82
2021/07/24 10:23:17;;;;;;;4.08;3.77;;;;;;;26.98;35.93;100255.58;1741004;82;20943;-81
2021/07/24 10:26:13;;;;;;;4.47;4.17;;;;;;;27.07;35.64;100254.88;1729864;82;21056;-78
2021/07/24 10:29:07;;;;;;;3.42;3.22;;;;;;;27.13;35.40;100253.14;1733624;82;20979;-80
2021/07/24 10:31:55;;;;;;;3.40;3.15;;;;;;;27.12;34.30;100253.43;1739344;82;21451;-80
2021/07/24 10:34:25;;;;;;;4.30;3.70;;;;;;;27.04;34.66;100252.20;1738129;82;21126;-81
2021/07/24 10:36:51;;;;;;;4.17;3.77;;;;;;;27.04;34.87;100249.47;1735101;82;21193;-78
2021/07/24 10:39:22;;;;;;;6.50;3.92;;;;;;;27.15;35.15;100242.70;1709314;82;21056;-78
2021/07/24 10:42:13;;;;;;;5.05;3.55;;;;;;;27.26;34.62;100246.09;1739625;82;21112;-80
2021/07/24 10:44:44;;;;;;;4.08;3.45;;;;;;;27.35;34.81;100243.45;1723667;82;20993;-79
2021/07/24 10:47:16;;;;;;;5.12;3.90;;;;;;;27.50;34.64;100246.45;1716746;83;21028;-80
2021/07/24 10:49:51;;;;;;;5.20;3.55;;;;;;;27.62;35.32;100243.22;1715835;83;21497;-80
2021/07/24 10:52:17;;;;;;;4.25;3.30;;;;;;;27.69;34.52;100245.80;1697905;83;21621;-80
2021/07/24 10:55:11;;;;;;;4.25;3.87;;;;;;;27.75;34.14;100245.14;1705497;83;21027;-81
2021/07/24 10:58:02;;;;;;;4.12;3.55;;;;;;;27.74;34.20;100246.24;1714204;82;21704;-82
2021/07/24 11:00:32;;;;;;;3.87;2.98;;;;;;;27.71;34.32;100241.39;1738153;82;21575;-81
2021/07/24 11:03:01;;;;;;;5.03;3.72;;;;;;;27.11;34.24;100141.03;1699540;83;21060;-79
2021/07/24 11:05:32;;;;;;;4.72;3.20;;;;;;;27.84;34.62;100243.84;1714181;82;21069;-80
2021/07/24 11:07:58;;;;;;;3.98;3.72;;;;;;;27.95;34.03;100239.26;1761973;81;21022;-81
2021/07/24 11:10:27;;;;;;;4.50;4.03;;;;;;;28.01;33.69;100237.75;1757471;80;21098;-80
2021/07/24 11:12:54;;;;;;;3.92;3.67;;;;;;;27.91;32.76;100243.70;1762647;80;21026;-80
2021/07/24 11:15:44;;;;;;;16.55;14.93;;;;;;;27.76;33.27;100236.63;1737358;80;20974;-78
2021/07/24 11:20:54;;;;;;;;;;;;;;;27.75;33.71;100230.08;1839817;76;22789;-76
2021/07/24 11:23:21;;;;;;;4.85;4.17;;;;;;;27.73;33.57;100230.37;1771761;77;20142;-77
2021/07/24 11:25:47;;;;;;;4.62;3.65;;;;;;;27.74;34.47;100236.09;1753694;81;20991;-75
2021/07/24 11:28:24;;;;;;;5.10;3.72;;;;;;;27.79;32.98;100234.39;1731227;81;21081;-78
2021/07/24 11:30:59;;;;;;;4.00;3.65;;;;;;;27.79;32.94;100237.93;1716874;81;21094;-79
2021/07/24 11:33:31;;;;;;;3.90;3.60;;;;;;;27.81;33.40;100236.26;1712229;81;21152;-78
2021/07/24 11:36:05;;;;;;;3.15;3.00;;;;;;;27.90;33.33;100241.30;1719154;81;21145;-76
2021/07/24 11:38:31;;;;;;;3.30;3.02;;;;;;;27.92;33.06;100236.32;1723117;81;21046;-77